createdAt,value
2022-07-30T08:29:13.039Z,2.97
2022-07-30T08:30:19.958Z,2.75
2022-07-30T08:31:22.194Z,2.58
2022-07-30T08:32:24.598Z,2.30
2022-07-30T08:33:27.542Z,3.10
2022-07-30T08:34:29.874Z,2.70
2022-07-30T08:35:33.115Z,2.42
2022-07-30T08:36:35.364Z,2.40
2022-07-30T08:37:40.937Z,2.10
2022-07-30T08:38:43.427Z,2.33
2022-07-30T08:39:45.869Z,2.25
2022-07-30T08:40:48.319Z,2.17
2022-07-30T08:41:51.702Z,2.40
2022-07-30T08:42:54.014Z,2.53
2022-07-30T08:44:00.389Z,2.40
2022-07-30T08:45:03.218Z,2.80
2022-07-30T08:46:09.946Z,2.25
2022-07-30T08:47:26.175Z,1.98
2022-07-30T08:48:47.107Z,2.20
2022-07-30T08:49:51.508Z,2.10
2022-07-30T08:50:59.498Z,2.15
2022-07-30T08:52:22.218Z,2.30
2022-07-30T08:53:34.777Z,2.28
2022-07-30T08:54:40.513Z,2.00
2022-07-30T08:55:43.081Z,2.08
2022-07-30T08:56:45.781Z,1.80
2022-07-30T08:57:48.761Z,2.38
2022-07-30T08:58:51.476Z,2.03
2022-07-30T09:00:01.340Z,2.13
2022-07-30T09:02:12.076Z,2.20
2022-07-30T09:03:27.991Z,1.67
2022-07-30T09:04:33.834Z,1.88
2022-07-30T09:05:36.120Z,1.75
2022-07-30T09:06:38.414Z,1.80
2022-07-30T09:07:41.537Z,1.77
2022-07-30T09:08:49.224Z,1.90
2022-07-30T09:09:52.847Z,1.80
2022-07-30T09:10:55.467Z,2.03
2022-07-30T09:11:57.678Z,1.88
2022-07-30T09:13:00.902Z,2.08
2022-07-30T09:14:14.454Z,2.20
2022-07-30T09:15:20.370Z,2.17
2022-07-30T09:16:26.831Z,2.13
2022-07-30T09:17:57.937Z,1.70
2022-07-30T09:19:12.740Z,2.10
2022-07-30T09:20:16.037Z,1.70
2022-07-30T09:21:26.488Z,1.80
2022-07-30T09:24:16.947Z,1.58
2022-07-30T09:25:49.259Z,2.22
2022-07-30T09:27:10.114Z,2.13
2022-07-30T09:28:34.370Z,2.10
2022-07-30T09:29:59.674Z,2.35
2022-07-30T09:31:23.784Z,2.28
2022-07-30T09:32:55.873Z,2.00
2022-07-30T09:34:04.221Z,2.00
2022-07-30T09:35:25.096Z,2.28
2022-07-30T09:38:06.777Z,2.20
2022-07-30T09:39:40.631Z,2.30
2022-07-30T09:41:07.976Z,2.22
2022-07-30T09:42:27.878Z,1.92
2022-07-30T09:43:41.267Z,1.75
2022-07-30T09:44:48.122Z,2.65
2022-07-30T09:45:57.865Z,1.85
2022-07-30T09:47:02.774Z,2.28
2022-07-30T09:48:23.065Z,1.85
2022-07-30T09:49:27.638Z,2.17
2022-07-30T09:50:30.995Z,1.90
2022-07-30T09:52:00.077Z,1.58
2022-07-30T09:53:09.526Z,1.70
2022-07-30T09:55:34.794Z,2.08
2022-07-30T09:56:37.790Z,1.65
2022-07-30T09:57:58.973Z,1.85
2022-07-30T09:59:02.721Z,1.95
2022-07-30T10:00:23.943Z,2.03
2022-07-30T10:01:56.280Z,1.73
2022-07-30T10:03:34.507Z,1.77
2022-07-30T10:06:18.142Z,1.83
2022-07-30T10:07:25.381Z,1.75
2022-07-30T10:08:46.667Z,2.30
2022-07-30T10:09:53.325Z,1.95
2022-07-30T10:10:56.174Z,2.22
2022-07-30T10:12:02.675Z,1.85
2022-07-30T10:13:08.924Z,1.67
2022-07-30T10:14:16.917Z,1.85
2022-07-30T10:15:21.245Z,2.17
2022-07-30T10:16:27.474Z,1.90
2022-07-30T10:17:34.257Z,1.73
2022-07-30T10:18:57.467Z,1.90
2022-07-30T10:20:18.711Z,1.70
2022-07-30T10:21:20.971Z,1.88
2022-07-30T10:23:07.642Z,1.55
2022-07-30T10:24:11.914Z,1.80
2022-07-30T10:25:32.694Z,1.77
2022-07-30T10:27:16.258Z,1.50
2022-07-30T10:28:44.299Z,1.85
2022-07-30T10:29:47.767Z,1.80
2022-07-30T10:30:51.614Z,1.50
2022-07-30T10:31:54.547Z,1.52
2022-07-30T10:32:58.656Z,1.50
2022-07-30T10:34:02.609Z,1.48
2022-07-30T10:35:06.229Z,1.77
2022-07-30T10:36:11.789Z,1.52
2022-07-30T10:37:16.696Z,1.90
2022-07-30T10:38:24.017Z,1.80
2022-07-30T10:39:37.271Z,1.73
2022-07-30T10:40:49.927Z,1.83
2022-07-30T10:42:08.910Z,1.80
2022-07-30T10:43:48.330Z,2.10
2022-07-30T10:45:23.163Z,1.67
2022-07-30T10:46:56.604Z,2.20
2022-07-30T10:48:04.069Z,1.88
2022-07-30T10:49:18.815Z,1.80
2022-07-30T10:50:26.661Z,1.83
2022-07-30T10:51:49.874Z,1.90
2022-07-30T10:52:56.958Z,2.00
2022-07-30T10:53:59.185Z,1.80
2022-07-30T10:55:01.607Z,1.80
2022-07-30T10:56:25.490Z,2.30
2022-07-30T10:57:32.752Z,1.85
2022-07-30T10:59:05.579Z,2.10
2022-07-30T11:00:12.083Z,2.03
2022-07-30T11:01:17.976Z,2.20
2022-07-30T11:02:22.193Z,1.92
2022-07-30T11:03:41.558Z,2.00
2022-07-30T11:04:47.818Z,2.05
2022-07-30T11:05:52.888Z,2.30
2022-07-30T11:07:27.717Z,2.45
2022-07-30T11:08:42.772Z,2.15
2022-07-30T11:09:45.389Z,1.85
2022-07-30T11:11:59.075Z,1.95
2022-07-30T11:12:46.064Z,1.92
2022-07-30T11:14:02.373Z,1.73
2022-07-30T11:15:07.315Z,2.25
2022-07-30T11:16:21.745Z,1.83
2022-07-30T11:17:24.158Z,1.90
2022-07-30T11:18:28.829Z,2.55
2022-07-30T11:19:55.560Z,1.80
2022-07-30T11:21:21.308Z,1.85
2022-07-30T11:22:38.803Z,2.25
2022-07-30T11:23:41.622Z,2.05
2022-07-30T11:24:45.649Z,2.20
2022-07-30T11:25:50.114Z,1.92
2022-07-30T11:26:53.191Z,1.75
2022-07-30T11:27:56.849Z,1.80
2022-07-30T11:28:59.123Z,1.98
2022-07-30T11:30:04.382Z,2.08
2022-07-30T11:31:54.523Z,2.08
2022-07-30T11:33:06.379Z,2.75
2022-07-30T11:34:20.624Z,1.90
2022-07-30T11:35:34.356Z,2.10
2022-07-30T11:38:22.195Z,1.98
2022-07-30T11:39:29.842Z,2.10
2022-07-30T11:40:46.736Z,1.80
2022-07-30T11:42:25.414Z,2.00
2022-07-30T11:43:36.077Z,1.95
2022-07-30T11:44:39.055Z,1.73
2022-07-30T11:45:41.471Z,1.85
2022-07-30T11:46:48.933Z,2.00
2022-07-30T11:47:54.238Z,1.83
2022-07-30T11:49:08.353Z,1.85
2022-07-30T11:50:19.622Z,1.70
2022-07-30T11:51:22.026Z,1.75
2022-07-30T11:52:24.253Z,2.40
2022-07-30T11:53:26.503Z,2.03
2022-07-30T11:54:28.829Z,1.70
2022-07-30T11:55:34.358Z,1.80
2022-07-30T11:56:37.037Z,1.98
2022-07-30T11:57:40.473Z,1.70
2022-07-30T11:58:44.268Z,1.50
2022-07-30T11:59:58.943Z,1.90
2022-07-30T12:01:09.353Z,1.63
2022-07-30T12:02:11.866Z,2.08
2022-07-30T12:03:16.129Z,2.05
2022-07-30T12:04:19.072Z,1.90
2022-07-30T12:05:26.902Z,1.75
2022-07-30T12:06:31.943Z,2.15
2022-07-30T12:07:35.277Z,1.92
2022-07-30T12:08:42.268Z,2.88
2022-07-30T12:09:44.491Z,1.80
2022-07-30T12:11:00.109Z,1.88
2022-07-30T12:12:03.491Z,2.00
2022-07-30T12:13:11.915Z,1.85
2022-07-30T12:14:14.102Z,2.00
2022-07-30T12:15:33.266Z,2.10
2022-07-30T12:16:35.462Z,2.30
2022-07-30T12:17:45.116Z,2.08
2022-07-30T12:18:47.832Z,1.90
2022-07-30T12:19:50.309Z,2.25
2022-07-30T12:21:04.342Z,2.00
2022-07-30T12:22:06.556Z,2.10
2022-07-30T12:23:15.638Z,1.90
2022-07-30T12:24:26.618Z,1.70
2022-07-30T12:25:29.598Z,2.20
2022-07-30T12:26:34.392Z,2.20
2022-07-30T12:27:37.332Z,2.35
2022-07-30T12:28:39.594Z,2.10
2022-07-30T12:29:41.854Z,2.05
2022-07-30T12:30:44.355Z,2.17
2022-07-30T12:31:46.781Z,2.22
2022-07-30T12:32:49.282Z,2.05
2022-07-30T12:33:51.546Z,2.20
2022-07-30T12:34:58.099Z,2.22
2022-07-30T12:36:01.084Z,2.10
2022-07-30T12:37:10.454Z,2.00
2022-07-30T12:38:13.604Z,2.45
2022-07-30T12:39:26.398Z,2.67
2022-07-30T12:40:28.639Z,2.47
2022-07-30T12:41:44.911Z,2.75
2022-07-30T12:42:54.285Z,2.20
2022-07-30T12:43:56.545Z,2.65
2022-07-30T12:44:59.902Z,2.33
2022-07-30T12:46:02.139Z,2.50
2022-07-30T12:47:06.932Z,2.03
2022-07-30T12:48:12.948Z,2.33
2022-07-30T12:49:22.731Z,2.40
2022-07-30T12:50:27.122Z,2.70
2022-07-30T12:51:35.045Z,2.10
2022-07-30T12:52:40.301Z,2.40
2022-07-30T12:53:42.816Z,2.92
2022-07-30T12:54:44.995Z,2.78
2022-07-30T12:55:47.215Z,2.10
2022-07-30T12:57:04.579Z,2.83
2022-07-30T12:58:08.989Z,2.40
2022-07-30T12:59:21.769Z,2.85
2022-07-30T13:00:47.041Z,2.70
2022-07-30T13:01:50.223Z,2.85
2022-07-30T13:02:54.586Z,2.63
2022-07-30T13:04:05.710Z,2.88
2022-07-30T13:05:10.315Z,2.80
2022-07-30T13:06:18.839Z,2.60
2022-07-30T13:07:21.475Z,2.50
2022-07-30T13:08:45.280Z,2.95
2022-07-30T13:09:47.494Z,2.58
2022-07-30T13:11:00.704Z,2.70
2022-07-30T13:12:04.039Z,2.40
2022-07-30T13:13:06.309Z,1.95
2022-07-30T13:14:10.805Z,2.95
2022-07-30T13:15:20.784Z,2.65
2022-07-30T13:16:23.014Z,2.75
2022-07-30T13:17:25.200Z,2.30
2022-07-30T13:18:29.060Z,2.70
2022-07-30T13:19:31.227Z,2.50
2022-07-30T13:20:33.413Z,2.38
2022-07-30T13:21:35.636Z,2.55
2022-07-30T13:22:37.782Z,2.40
2022-07-30T13:23:41.093Z,2.65
2022-07-30T13:24:43.860Z,2.33
2022-07-30T13:25:46.032Z,2.42
2022-07-30T13:26:50.827Z,2.10
2022-07-30T13:27:53.154Z,2.40
2022-07-30T13:29:01.270Z,2.53
2022-07-30T13:30:05.328Z,2.03
2022-07-30T13:31:08.413Z,2.70
2022-07-30T13:32:10.637Z,2.30
2022-07-30T13:33:12.940Z,2.22
2022-07-30T13:34:15.178Z,2.20
2022-07-30T13:35:17.550Z,2.40
2022-07-30T13:36:19.839Z,2.03
2022-07-30T13:37:22.017Z,2.70
2022-07-30T13:38:26.050Z,2.50
2022-07-30T13:39:28.240Z,2.47
2022-07-30T13:40:32.176Z,2.30
2022-07-30T13:41:36.172Z,2.35
2022-07-30T13:42:38.462Z,2.10
2022-07-30T13:43:40.637Z,2.90
2022-07-30T13:44:42.813Z,2.28
2022-07-30T13:45:45.084Z,2.13
2022-07-30T13:46:47.379Z,2.30
2022-07-30T13:47:49.540Z,2.08
2022-07-30T13:48:51.797Z,2.30
2022-07-30T13:49:54.075Z,2.22
2022-07-30T13:50:56.489Z,2.10
2022-07-30T13:51:58.675Z,2.42
2022-07-30T13:53:02.539Z,2.33
2022-07-30T13:54:05.123Z,2.42
2022-07-30T13:55:07.326Z,2.53
2022-07-30T13:56:12.941Z,2.28
2022-07-30T13:57:15.311Z,2.60
2022-07-30T13:58:17.500Z,2.50
2022-07-30T13:59:19.641Z,2.35
2022-07-30T14:00:22.932Z,2.60
2022-07-30T14:01:25.142Z,3.05
2022-07-30T14:02:27.865Z,2.88
2022-07-30T14:03:30.401Z,2.70
2022-07-30T14:04:32.727Z,2.30
2022-07-30T14:05:36.166Z,2.72
2022-07-30T14:06:44.578Z,3.07
2022-07-30T14:07:46.740Z,2.47
2022-07-30T14:08:49.106Z,2.47
2022-07-30T14:09:54.390Z,2.55
2022-07-30T14:10:58.452Z,2.30
2022-07-30T14:12:00.677Z,2.95
2022-07-30T14:13:04.570Z,2.42
2022-07-30T14:14:06.744Z,2.75
2022-07-30T14:15:09.751Z,2.33
2022-07-30T14:16:35.417Z,2.20
2022-07-30T14:17:34.390Z,2.65
2022-07-30T14:18:36.565Z,2.70
2022-07-30T14:19:38.744Z,2.53
2022-07-30T14:20:44.528Z,2.88
2022-07-30T14:21:49.075Z,2.95
2022-07-30T14:22:51.455Z,2.78
2022-07-30T14:23:53.658Z,2.67
2022-07-30T14:24:55.879Z,2.90
2022-07-30T14:25:58.119Z,2.40
2022-07-30T14:27:00.706Z,2.85
2022-07-30T14:28:03.260Z,3.00
2022-07-30T14:29:06.030Z,3.17
2022-07-30T14:30:10.077Z,3.30
2022-07-30T14:31:12.289Z,2.67
2022-07-30T14:32:14.670Z,2.53
2022-07-30T14:33:17.242Z,2.70
2022-07-30T14:34:19.414Z,3.33
2022-07-30T14:35:21.600Z,2.83
2022-07-30T14:36:25.628Z,2.90
2022-07-30T14:37:28.084Z,3.40
2022-07-30T14:38:30.850Z,3.03
2022-07-30T14:39:33.060Z,3.85
2022-07-30T14:40:35.323Z,3.28
2022-07-30T14:41:38.670Z,3.25
2022-07-30T14:42:41.637Z,3.03
2022-07-30T14:43:43.799Z,2.97
2022-07-30T14:44:47.364Z,2.97
2022-07-30T14:45:50.991Z,3.10
2022-07-30T14:46:53.443Z,2.90
2022-07-30T14:47:56.322Z,2.92
2022-07-30T14:48:58.519Z,2.83
2022-07-30T14:50:00.886Z,2.90
2022-07-30T14:51:16.006Z,2.90
2022-07-30T14:52:21.944Z,3.90
2022-07-30T14:53:24.158Z,3.22
2022-07-30T14:54:27.891Z,3.53
2022-07-30T14:55:30.069Z,3.53
2022-07-30T14:56:32.264Z,2.83
2022-07-30T14:57:34.589Z,2.70
2022-07-30T14:58:36.906Z,2.95
2022-07-30T14:59:39.204Z,3.20
2022-07-30T15:00:48.865Z,3.05
2022-07-30T15:01:52.812Z,3.13
2022-07-30T15:02:55.085Z,3.30
2022-07-30T15:03:57.244Z,3.78
2022-07-30T15:04:59.480Z,2.88
2022-07-30T15:06:02.360Z,2.80
2022-07-30T15:07:04.606Z,3.03
2022-07-30T15:08:09.040Z,3.28
2022-07-30T15:09:11.390Z,3.22
2022-07-30T15:10:13.852Z,3.20
2022-07-30T15:11:17.956Z,2.50
2022-07-30T15:12:27.065Z,3.13
2022-07-30T15:13:29.605Z,2.75
2022-07-30T15:14:34.204Z,2.72
2022-07-30T15:15:38.217Z,2.60
2022-07-30T15:16:40.604Z,2.60
2022-07-30T15:17:42.854Z,2.28
2022-07-30T15:18:45.068Z,2.38
2022-07-30T15:19:50.146Z,3.63
2022-07-30T15:20:53.718Z,3.03
2022-07-30T15:21:55.848Z,2.65
2022-07-30T15:22:58.090Z,3.17
2022-07-30T15:24:00.238Z,2.80
2022-07-30T15:25:02.454Z,2.67
2022-07-30T15:26:04.786Z,3.03
2022-07-30T15:27:07.207Z,2.88
2022-07-30T15:28:09.617Z,2.90
2022-07-30T15:29:13.391Z,3.08
2022-07-30T15:30:15.733Z,2.85
2022-07-30T15:31:18.179Z,3.15
2022-07-30T15:32:20.566Z,2.97
2022-07-30T15:33:22.790Z,3.40
2022-07-30T15:34:25.480Z,3.35
2022-07-30T15:35:27.735Z,3.40
2022-07-30T15:36:29.935Z,3.55
2022-07-30T15:37:32.140Z,3.65
2022-07-30T15:38:34.305Z,3.78
2022-07-30T15:39:36.534Z,4.18
2022-07-30T15:40:38.768Z,3.35
2022-07-30T15:41:42.826Z,3.38
2022-07-30T15:42:45.619Z,4.13
2022-07-30T15:43:47.776Z,3.15
2022-07-30T15:45:14.326Z,2.90
2022-07-30T15:46:12.193Z,3.10
2022-07-30T15:47:14.339Z,3.25
2022-07-30T15:48:19.095Z,3.45
2022-07-30T15:49:29.475Z,3.88
2022-07-30T15:50:31.899Z,3.63
2022-07-30T15:51:35.356Z,3.53
2022-07-30T15:52:37.819Z,3.40
2022-07-30T15:53:40.091Z,3.60
2022-07-30T15:54:42.301Z,3.20
2022-07-30T15:55:47.333Z,3.47
2022-07-30T15:56:51.565Z,4.15
2022-07-30T15:57:53.767Z,4.10
2022-07-30T15:58:57.532Z,4.30
2022-07-30T15:59:59.895Z,3.97
2022-07-30T16:01:03.464Z,3.72
2022-07-30T16:02:06.932Z,4.38
2022-07-30T16:03:09.295Z,3.83
2022-07-30T16:04:19.001Z,4.35
2022-07-30T16:05:23.173Z,3.53
2022-07-30T16:06:25.547Z,3.97
2022-07-30T16:07:27.916Z,4.47
2022-07-30T16:08:30.426Z,4.28
2022-07-30T16:09:32.625Z,4.15
2022-07-30T16:10:34.808Z,4.47
2022-07-30T16:11:38.832Z,3.78
2022-07-30T16:12:42.073Z,4.13
2022-07-30T16:13:44.348Z,4.18
2022-07-30T16:14:46.514Z,4.70
2022-07-30T16:15:48.721Z,4.53
2022-07-30T16:16:52.639Z,4.57
2022-07-30T16:17:54.826Z,3.67
2022-07-30T16:18:57.013Z,3.80
2022-07-30T16:19:59.269Z,4.07
2022-07-30T16:21:01.545Z,3.70
2022-07-30T16:22:04.242Z,3.65
2022-07-30T16:23:12.463Z,3.50
2022-07-30T16:24:16.829Z,3.30
2022-07-30T16:25:18.986Z,4.35
2022-07-30T16:26:21.799Z,3.40
2022-07-30T16:27:25.602Z,3.72
2022-07-30T16:28:28.122Z,3.15
2022-07-30T16:29:30.343Z,3.20
2022-07-30T16:30:32.518Z,3.55
2022-07-30T16:31:35.077Z,3.67
2022-07-30T16:32:37.236Z,3.67
2022-07-30T16:33:39.448Z,3.90
2022-07-30T16:34:41.617Z,3.90
2022-07-30T16:35:48.973Z,3.33
2022-07-30T16:36:53.160Z,3.22
2022-07-30T16:37:57.497Z,2.88
2022-07-30T16:39:01.202Z,2.95
2022-07-30T16:40:04.626Z,3.47
2022-07-30T16:41:10.433Z,3.55
2022-07-30T16:42:15.584Z,3.60
2022-07-30T16:43:20.072Z,3.33
2022-07-30T16:44:22.512Z,4.28
2022-07-30T16:45:24.719Z,3.35
2022-07-30T16:46:27.055Z,3.72
2022-07-30T16:47:33.779Z,3.50
2022-07-30T16:48:37.304Z,3.03
2022-07-30T16:49:39.589Z,3.42
2022-07-30T16:50:42.536Z,3.53
2022-07-30T16:51:44.723Z,3.88
2022-07-30T16:52:47.084Z,3.90
2022-07-30T16:53:49.293Z,3.80
2022-07-30T16:54:51.480Z,3.80
2022-07-30T16:55:53.750Z,3.75
2022-07-30T16:56:55.998Z,3.97
2022-07-30T16:57:58.751Z,3.42
2022-07-30T16:59:00.996Z,3.47
2022-07-30T17:00:05.877Z,3.70
2022-07-30T17:01:08.408Z,3.33
2022-07-30T17:02:10.806Z,3.92
2022-07-30T17:03:19.947Z,3.58
2022-07-30T17:04:22.607Z,3.72
2022-07-30T17:05:24.804Z,3.75
2022-07-30T17:06:27.062Z,3.50
2022-07-30T17:07:29.283Z,3.35
2022-07-30T17:08:31.466Z,4.57
2022-07-30T17:09:36.386Z,3.45
2022-07-30T17:10:39.230Z,3.60
2022-07-30T17:11:47.106Z,3.45
2022-07-30T17:12:56.848Z,3.30
2022-07-30T17:13:59.787Z,3.53
2022-07-30T17:15:02.033Z,3.30
2022-07-30T17:16:04.594Z,3.90
2022-07-30T17:17:09.687Z,3.03
2022-07-30T17:18:15.840Z,3.40
2022-07-30T17:19:18.204Z,3.65
2022-07-30T17:20:20.758Z,3.15
2022-07-30T17:21:23.023Z,3.67
2022-07-30T17:22:25.211Z,3.65
2022-07-30T17:23:27.483Z,3.42
2022-07-30T17:24:29.652Z,3.10
2022-07-30T17:25:32.002Z,2.92
2022-07-30T17:26:35.852Z,3.35
2022-07-30T17:27:38.066Z,2.53
2022-07-30T17:28:40.251Z,3.17
2022-07-30T17:29:50.626Z,2.63
2022-07-30T17:31:55.497Z,2.80
2022-07-30T17:32:58.128Z,2.83
2022-07-30T17:34:00.295Z,3.20
2022-07-30T17:35:02.527Z,3.28
2022-07-30T17:36:08.348Z,3.33
2022-07-30T17:37:10.551Z,2.63
2022-07-30T17:38:12.750Z,3.50
2022-07-30T17:40:26.446Z,3.30
2022-07-30T17:40:38.049Z,3.53
2022-07-30T17:41:55.615Z,2.40
2022-07-30T17:43:07.387Z,3.22
2022-07-30T17:44:09.906Z,3.08
2022-07-30T17:45:12.627Z,2.88
2022-07-30T17:46:15.057Z,2.83
2022-07-30T17:47:17.595Z,2.90
2022-07-30T17:48:21.716Z,2.80
2022-07-30T17:49:24.067Z,2.80
2022-07-30T17:50:26.309Z,2.78
2022-07-30T17:51:28.644Z,2.70
2022-07-30T17:52:30.923Z,2.83
2022-07-30T17:53:33.119Z,2.72
2022-07-30T17:54:37.273Z,2.83
2022-07-30T17:55:39.482Z,2.90
2022-07-30T17:56:41.786Z,3.15
2022-07-30T17:57:43.948Z,2.92
2022-07-30T17:58:46.281Z,2.65
2022-07-30T17:59:53.705Z,3.00
2022-07-30T18:00:57.304Z,2.40
2022-07-30T18:02:00.069Z,2.63
2022-07-30T18:03:03.547Z,2.75
2022-07-30T18:04:05.801Z,2.83
2022-07-30T18:05:10.478Z,3.05
2022-07-30T18:06:12.671Z,3.65
2022-07-30T18:07:14.862Z,2.88
2022-07-30T18:08:17.069Z,2.60
2022-07-30T18:09:19.293Z,2.63
2022-07-30T18:10:21.594Z,2.80
2022-07-30T18:11:23.881Z,2.70
2022-07-30T18:12:26.087Z,2.75
2022-07-30T18:13:28.826Z,2.72
2022-07-30T18:14:30.984Z,2.67
2022-07-30T18:15:36.090Z,3.03
2022-07-30T18:16:38.404Z,2.58
2022-07-30T18:17:40.552Z,2.53
2022-07-30T18:18:42.738Z,2.30
2022-07-30T18:19:44.913Z,2.70
2022-07-30T18:20:48.261Z,2.70
2022-07-30T18:21:51.125Z,2.55
2022-07-30T18:22:53.891Z,2.63
2022-07-30T18:23:57.427Z,2.33
2022-07-30T18:25:00.635Z,2.47
2022-07-30T18:26:03.317Z,2.60
2022-07-30T18:27:05.705Z,2.53
2022-07-30T18:28:07.979Z,3.47
2022-07-30T18:29:13.840Z,2.40
2022-07-30T18:30:16.336Z,2.20
2022-07-30T18:31:18.575Z,2.45
2022-07-30T18:32:21.122Z,2.50
2022-07-30T18:33:23.457Z,2.67
2022-07-30T18:34:25.692Z,2.45
2022-07-30T18:35:27.992Z,3.00
2022-07-30T18:36:30.401Z,2.40
2022-07-30T18:37:40.082Z,2.15
2022-07-30T18:38:46.318Z,2.63
2022-07-30T18:39:48.532Z,2.10
2022-07-30T18:40:59.848Z,2.38
2022-07-30T18:42:03.580Z,2.15
2022-07-30T18:43:06.450Z,2.40
2022-07-30T18:44:08.927Z,2.38
2022-07-30T18:45:14.749Z,1.98
2022-07-30T18:46:16.935Z,2.00
2022-07-30T18:47:19.179Z,1.83
2022-07-30T18:48:22.552Z,1.58
2022-07-30T18:49:36.653Z,2.10
2022-07-30T18:50:39.807Z,2.33
2022-07-30T18:51:42.011Z,1.42
2022-07-30T18:52:44.835Z,1.77
2022-07-30T18:53:47.062Z,2.50
2022-07-30T18:54:49.278Z,1.60
2022-07-30T18:55:51.831Z,1.45
2022-07-30T18:56:54.064Z,1.60
2022-07-30T18:57:56.386Z,1.60
2022-07-30T18:58:58.628Z,2.10
2022-07-30T19:00:00.903Z,1.67
2022-07-30T19:01:03.223Z,1.35
2022-07-30T19:02:07.022Z,1.55
2022-07-30T19:03:15.436Z,1.50
2022-07-30T19:04:19.807Z,1.27
2022-07-30T19:05:22.026Z,1.33
2022-07-30T19:06:24.291Z,1.48
2022-07-30T19:07:26.493Z,1.48
2022-07-30T19:08:29.006Z,1.63
2022-07-30T19:09:31.271Z,1.48
2022-07-30T19:10:34.258Z,1.20
2022-07-30T19:11:36.482Z,1.90
2022-07-30T19:12:39.773Z,1.38
2022-07-30T19:13:42.189Z,1.83
2022-07-30T19:14:44.596Z,2.22
2022-07-30T19:15:46.765Z,1.50
2022-07-30T19:16:49.237Z,1.30
2022-07-30T19:17:53.393Z,2.72
2022-07-30T19:18:55.551Z,1.73
2022-07-30T19:19:57.727Z,1.48
2022-07-30T19:21:00.104Z,1.30
2022-07-30T19:22:02.508Z,1.35
2022-07-30T19:23:07.338Z,1.48
2022-07-30T19:24:10.228Z,1.83
2022-07-30T19:25:13.161Z,1.42
2022-07-30T19:26:16.780Z,1.77
2022-07-30T19:27:19.016Z,1.27
2022-07-30T19:28:21.198Z,1.60
2022-07-30T19:29:23.463Z,1.40
2022-07-30T19:30:25.668Z,1.50
2022-07-30T19:31:27.959Z,1.35
2022-07-30T19:32:30.265Z,1.08
2022-07-30T19:33:32.522Z,1.30
2022-07-30T19:34:36.503Z,1.30
2022-07-30T19:35:38.886Z,1.23
2022-07-30T19:36:41.084Z,1.13
2022-07-30T19:37:43.254Z,1.20
2022-07-30T19:38:45.529Z,1.55
2022-07-30T19:40:05.770Z,1.00
2022-07-30T19:41:09.098Z,1.60
2022-07-30T19:42:11.832Z,1.15
2022-07-30T19:43:14.030Z,1.45
2022-07-30T19:44:18.655Z,1.67
2022-07-30T19:45:21.192Z,1.17
2022-07-30T19:46:24.460Z,1.58
2022-07-30T19:47:26.642Z,1.17
2022-07-30T19:48:32.375Z,1.17
2022-07-30T19:49:40.418Z,1.38
2022-07-30T19:50:42.633Z,1.35
2022-07-30T19:52:10.917Z,1.13
2022-07-30T19:53:07.659Z,1.20
2022-07-30T19:54:09.959Z,1.23
2022-07-30T19:55:17.304Z,1.10
2022-07-30T19:56:37.781Z,1.27
2022-07-30T19:57:53.416Z,1.08
2022-07-30T19:58:56.602Z,1.20
2022-07-30T20:00:04.264Z,1.20
2022-07-30T20:01:15.654Z,1.35
2022-07-30T20:02:17.955Z,1.10
2022-07-30T20:03:25.427Z,1.73
2022-07-30T20:04:28.603Z,1.10
2022-07-30T20:05:30.858Z,0.90
2022-07-30T20:06:34.598Z,1.35
2022-07-30T20:07:37.005Z,1.13
2022-07-30T20:08:39.182Z,1.35
2022-07-30T20:09:43.005Z,1.10
2022-07-30T20:10:46.148Z,1.25
2022-07-30T20:11:48.655Z,1.20
2022-07-30T20:12:50.921Z,1.08
2022-07-30T20:13:53.092Z,1.15
2022-07-30T20:14:57.183Z,1.00
2022-07-30T20:15:59.898Z,1.13
2022-07-30T20:17:02.505Z,1.10
2022-07-30T20:18:04.795Z,1.10
2022-07-30T20:19:10.676Z,1.75
2022-07-30T20:20:18.015Z,1.42
2022-07-30T20:21:57.140Z,1.23
2022-07-30T20:22:50.877Z,1.70
2022-07-30T20:23:53.207Z,1.05
2022-07-30T20:24:56.119Z,1.30
2022-07-30T20:25:59.143Z,1.48
2022-07-30T20:27:35.409Z,1.10
2022-07-30T20:28:24.449Z,1.20
2022-07-30T20:29:28.374Z,1.25
2022-07-30T20:30:32.609Z,1.35
2022-07-30T20:31:35.075Z,1.48
2022-07-30T20:32:43.494Z,1.95
2022-07-30T20:33:50.954Z,1.42
2022-07-30T20:34:53.324Z,1.90
2022-07-30T20:35:56.992Z,2.22
2022-07-30T20:36:59.362Z,1.25
2022-07-30T20:38:21.627Z,1.30
2022-07-30T20:39:25.331Z,1.42
2022-07-30T20:40:27.869Z,1.80
2022-07-30T20:41:30.105Z,1.13
2022-07-30T20:42:32.739Z,1.40
2022-07-30T20:43:35.724Z,1.20
2022-07-30T20:44:56.814Z,1.40
2022-07-30T20:45:59.400Z,1.20
2022-07-30T20:47:08.297Z,1.13
2022-07-30T20:48:17.513Z,1.42
2022-07-30T20:49:35.252Z,1.52
2022-07-30T20:50:39.740Z,1.20
2022-07-30T20:51:41.959Z,1.00
2022-07-30T20:52:46.703Z,1.20
2022-07-30T20:53:49.307Z,1.20
2022-07-30T20:54:51.757Z,1.30
2022-07-30T20:55:54.086Z,1.10
2022-07-30T20:56:56.328Z,1.40
2022-07-30T20:58:06.977Z,1.20
2022-07-30T20:59:16.251Z,1.02
2022-07-30T21:00:20.207Z,1.38
2022-07-30T21:01:22.571Z,1.40
2022-07-30T21:02:26.917Z,1.67
2022-07-30T21:03:31.198Z,1.55
2022-07-30T21:04:33.904Z,1.45
2022-07-30T21:05:38.353Z,1.98
2022-07-30T21:06:47.626Z,1.13
2022-07-30T21:07:52.883Z,1.38
2022-07-30T21:08:56.561Z,1.23
2022-07-30T21:09:58.893Z,1.02
2022-07-30T21:11:02.021Z,1.30
2022-07-30T21:12:04.811Z,1.25
2022-07-30T21:13:08.218Z,1.00
2022-07-30T21:14:11.629Z,1.35
2022-07-30T21:15:23.560Z,1.00
2022-07-30T21:16:30.604Z,1.20
2022-07-30T21:17:32.994Z,1.40
2022-07-30T21:18:35.293Z,1.27
2022-07-30T21:19:37.502Z,1.48
2022-07-30T21:20:39.704Z,1.35
2022-07-30T21:23:06.538Z,1.35
2022-07-30T21:24:19.285Z,1.10
2022-07-30T21:25:23.451Z,1.52
2022-07-30T21:26:34.980Z,1.30
2022-07-30T21:27:40.779Z,1.20
2022-07-30T21:28:42.943Z,1.35
2022-07-30T21:29:45.393Z,1.40
2022-07-30T21:30:48.642Z,1.77
2022-07-30T21:33:13.797Z,1.30
2022-07-30T21:34:16.025Z,1.20
2022-07-30T21:35:18.407Z,1.58
2022-07-30T21:36:24.728Z,1.10
2022-07-30T21:37:36.432Z,1.55
2022-07-30T21:38:42.699Z,1.45
2022-07-30T21:39:45.775Z,1.63
2022-07-30T21:40:49.121Z,1.60
2022-07-30T21:41:52.145Z,1.38
2022-07-30T21:42:57.988Z,1.55
2022-07-30T21:44:00.200Z,1.50
2022-07-30T21:45:05.414Z,1.70
2022-07-30T21:46:08.843Z,1.40
2022-07-30T21:47:13.327Z,1.80
2022-07-30T21:48:15.627Z,1.27
2022-07-30T21:49:18.372Z,1.27
2022-07-30T21:50:21.558Z,1.92
2022-07-30T21:51:23.764Z,1.88
2022-07-30T21:52:29.516Z,1.80
2022-07-30T21:53:45.118Z,1.60
2022-07-30T21:54:51.342Z,1.80
2022-07-30T21:55:53.625Z,1.52
2022-07-30T21:56:56.320Z,1.33
2022-07-30T21:58:00.222Z,1.63
2022-07-30T21:59:02.481Z,1.48
2022-07-30T22:00:21.788Z,1.50
2022-07-30T22:01:24.736Z,1.33
2022-07-30T22:02:28.076Z,1.40
2022-07-30T22:04:03.274Z,1.38
2022-07-30T22:04:53.667Z,1.70
2022-07-30T22:05:56.649Z,1.30
2022-07-30T22:07:00.489Z,1.80
2022-07-30T22:08:05.218Z,1.15
2022-07-30T22:09:19.610Z,1.10
2022-07-30T22:10:36.716Z,1.45
2022-07-30T22:11:42.699Z,1.20
2022-07-30T22:12:47.464Z,1.25
2022-07-30T22:13:53.459Z,1.33
2022-07-30T22:14:56.875Z,1.38
2022-07-30T22:15:59.063Z,1.50
2022-07-30T22:17:01.289Z,1.65
2022-07-30T22:18:07.988Z,1.40
2022-07-30T22:19:10.407Z,1.20
2022-07-30T22:20:17.723Z,1.30
2022-07-30T22:21:21.106Z,1.65
2022-07-30T22:22:27.320Z,1.13
2022-07-30T22:23:30.457Z,1.15
2022-07-30T22:24:33.760Z,1.33
2022-07-30T22:25:44.141Z,1.98
2022-07-30T22:26:47.317Z,1.38
2022-07-30T22:27:56.958Z,1.30
2022-07-30T22:28:59.452Z,1.30
2022-07-30T22:30:01.608Z,1.83
2022-07-30T22:31:05.610Z,1.60
2022-07-30T22:32:08.606Z,1.17
2022-07-30T22:33:16.647Z,1.52
2022-07-30T22:34:18.881Z,2.05
2022-07-30T22:35:33.466Z,1.65
2022-07-30T22:36:36.210Z,1.38
2022-07-30T22:37:38.444Z,1.77
2022-07-30T22:38:40.674Z,1.58
2022-07-30T22:39:51.552Z,1.70
2022-07-30T22:40:54.521Z,1.85
2022-07-30T22:42:00.943Z,1.80
2022-07-30T22:43:09.407Z,1.75
2022-07-30T22:44:14.786Z,1.55
2022-07-30T22:45:35.973Z,1.95
2022-07-30T22:46:40.139Z,1.95
2022-07-30T22:47:50.794Z,1.88
2022-07-30T22:48:56.274Z,1.85
2022-07-30T22:49:58.683Z,1.95
2022-07-30T22:51:01.592Z,1.88
2022-07-30T22:52:16.765Z,1.65
2022-07-30T22:54:02.489Z,1.95
2022-07-30T22:54:50.858Z,1.63
2022-07-30T22:55:53.316Z,1.50
2022-07-30T22:56:56.971Z,1.90
2022-07-30T22:58:06.494Z,1.83
2022-07-30T22:59:08.867Z,2.22
2022-07-30T23:00:13.676Z,2.20
2022-07-30T23:01:16.497Z,1.75
2022-07-30T23:02:19.121Z,1.77
2022-07-30T23:03:22.899Z,1.75
2022-07-30T23:04:25.057Z,1.95
2022-07-30T23:05:27.880Z,2.22
2022-07-30T23:06:33.122Z,1.92
2022-07-30T23:07:39.598Z,1.67
2022-07-30T23:08:42.249Z,2.05
2022-07-30T23:09:49.413Z,1.95
2022-07-30T23:10:54.319Z,2.03
2022-07-30T23:11:56.916Z,2.10
2022-07-30T23:12:27.227Z,0.93
2022-07-30T23:12:32.423Z,1.25
2022-07-30T23:13:00.158Z,2.10
2022-07-30T23:14:02.394Z,2.13
2022-07-30T23:15:07.445Z,2.10
2022-07-30T23:16:09.845Z,2.40
2022-07-30T23:17:12.863Z,2.13